Time;durP1;ratioP1;P1;durP2;ratioP2;P2;SDS_P1;SDS_P2;PMS_P1;PMS_P2;Temp;Humidity;BMP_temperature;BMP_pressure;BME280_temperature;BME280_humidity;BME280_pressure;Samples;Min_cycle;Max_cycle;Signal;HPM_P1;HPM_P2
2022/11/02 00:01:18;;;;;;;;;0.00;0.00;;;;;15.65;100.00;101642.19;5097893;27;45374;-76
2022/11/02 00:03:43;;;;;;;;;1.00;1.00;;;;;15.68;100.00;101650.19;5098631;27;45546;-74
2022/11/02 00:06:08;;;;;;;;;2.33;0.00;;;;;15.68;100.00;101650.19;5097561;27;67381;-76
2022/11/02 00:08:34;;;;;;;;;0.33;0.00;;;;;15.64;100.00;101647.53;5098135;27;51550;-75
2022/11/02 00:10:59;;;;;;;;;1.67;0.00;;;;;15.58;100.00;101637.72;5097840;27;52834;-75
2022/11/02 00:13:24;;;;;;;;;0.00;0.00;;;;;15.56;100.00;101638.59;5076259;27;45297;-75
2022/11/02 00:15:50;;;;;;;;;1.00;1.00;;;;;15.54;100.00;101654.53;5097164;27;46680;-74
2022/11/02 00:18:15;;;;;;;;;1.00;0.00;;;;;15.48;100.00;101641.22;5096590;27;46324;-74
2022/11/02 00:20:42;;;;;;;;;2.67;1.00;;;;;15.49;100.00;101664.28;5080460;27;45423;-76
2022/11/02 00:23:09;;;;;;;;;0.00;0.00;;;;;15.49;100.00;101666.06;5080455;27;45650;-74
2022/11/02 00:25:41;;;;;;;;;3.67;0.00;;;;;15.45;100.00;101671.38;5098220;27;46336;-76
2022/11/02 00:28:06;;;;;;;;;1.00;0.00;;;;;15.44;100.00;101664.25;5098337;27;45497;-75
2022/11/02 00:30:32;;;;;;;;;0.67;0.67;;;;;15.40;100.00;101666.94;5097425;27;59826;-75
2022/11/02 00:32:57;;;;;;;;;4.00;1.00;;;;;15.41;100.00;101668.69;5079510;27;55163;-75
2022/11/02 00:35:22;;;;;;;;;1.00;1.00;;;;;15.37;100.00;101678.44;5097792;27;53120;-75
2022/11/02 00:37:48;;;;;;;;;3.33;0.00;;;;;15.35;100.00;101674.00;5097409;27;60442;-75
2022/11/02 00:40:13;;;;;;;;;0.67;0.33;;;;;15.35;100.00;101685.53;5079216;27;61662;-76
2022/11/02 00:42:39;;;;;;;;;0.00;0.00;;;;;15.33;100.00;101681.97;5097458;27;56818;-75
2022/11/02 00:45:05;;;;;;;;;1.00;1.00;;;;;15.31;100.00;101686.38;5098183;27;45674;-74
2022/11/02 00:47:30;;;;;;;;;2.33;0.00;;;;;15.31;100.00;101693.50;5097732;27;45433;-75
2022/11/02 00:49:57;;;;;;;;;3.67;0.00;;;;;15.28;100.00;101685.47;5080175;27;45466;-75
2022/11/02 00:52:22;;;;;;;;;1.33;0.00;;;;;15.28;100.00;101697.00;5097627;27;60850;-75
2022/11/02 00:54:47;;;;;;;;;1.00;1.00;;;;;15.24;100.00;101687.25;5097044;27;70174;-75
2022/11/02 00:57:13;;;;;;;;;0.33;0.33;;;;;15.19;100.00;101695.19;5097648;27;45350;-75
2022/11/02 00:59:38;;;;;;;;;2.00;0.33;;;;;15.15;100.00;101696.06;5097426;27;54551;-75
2022/11/02 01:02:03;;;;;;;;;2.00;1.00;;;;;15.13;100.00;101711.13;5098020;27;45440;-75
2022/11/02 01:04:29;;;;;;;;;1.00;1.00;;;;;15.09;100.00;101709.31;5096935;27;64173;-74
2022/11/02 01:06:54;;;;;;;;;0.00;0.00;;;;;15.08;100.00;101709.31;5097596;27;45515;-76
2022/11/02 01:09:20;;;;;;;;;0.00;0.00;;;;;15.05;100.00;101711.94;5077665;27;54699;-75
2022/11/02 01:11:46;;;;;;;;;1.33;0.00;;;;;15.02;100.00;101711.91;5078176;27;45517;-74
2022/11/02 01:14:11;;;;;;;;;0.00;0.00;;;;;15.02;100.00;101718.16;5075300;27;46178;-76
2022/11/02 01:16:38;;;;;;;;;0.00;0.00;;;;;15.03;100.00;101716.38;5097271;27;45445;-75
2022/11/02 01:19:04;;;;;;;;;0.00;0.00;;;;;15.00;100.00;101708.38;5079474;27;45504;-75
2022/11/02 01:21:29;;;;;;;;;1.00;1.00;;;;;14.99;100.00;101709.25;5079226;27;45610;-75
2022/11/02 01:23:55;;;;;;;;;0.00;0.00;;;;;14.98;100.00;101718.13;5096782;27;61997;-74
2022/11/02 01:26:20;;;;;;;;;0.67;0.33;;;;;14.94;100.00;101710.09;5079232;27;45454;-75
2022/11/02 01:28:45;;;;;;;;;3.00;0.33;;;;;14.93;100.00;101718.09;5097069;27;48730;-75
2022/11/02 01:31:11;;;;;;;;;0.00;0.00;;;;;14.93;100.00;101721.63;5096869;27;57129;-75
2022/11/02 01:33:37;;;;;;;;;1.67;0.00;;;;;14.91;100.00;101719.81;5096989;27;45980;-75
2022/11/02 01:36:04;;;;;;;;;0.00;0.00;;;;;14.88;100.00;101731.34;5097276;27;45601;-76
2022/11/02 01:38:30;;;;;;;;;0.00;0.00;;;;;14.88;100.00;101717.16;5079027;27;45407;-75
2022/11/02 01:40:55;;;;;;;;;3.33;0.00;;;;;14.89;100.00;101721.59;5079272;27;45415;-75
2022/11/02 01:43:24;;;;;;;;;3.00;0.00;;;;;14.88;100.00;101723.34;5078341;27;64047;-76
2022/11/02 01:45:53;;;;;;;;;3.00;0.00;;;;;14.87;100.00;101739.31;5078202;27;46462;-76
2022/11/02 01:48:24;;;;;;;;;0.33;0.33;;;;;14.85;100.00;101738.38;5079336;27;45319;-74
2022/11/02 01:50:50;;;;;;;;;2.00;0.00;;;;;14.81;100.00;101737.50;5078832;27;45436;-76
2022/11/02 01:53:15;;;;;;;;;2.00;0.67;;;;;14.81;100.00;101740.16;5078404;27;62023;-75
2022/11/02 01:55:40;;;;;;;;;2.00;0.67;;;;;14.78;100.00;101740.13;5076046;27;45267;-76
2022/11/02 01:58:09;;;;;;;;;2.67;0.00;;;;;14.75;100.00;101745.38;5096458;27;59458;-75
2022/11/02 02:00:36;;;;;;;;;2.33;1.00;;;;;14.74;100.00;101743.63;5078657;27;45435;-75
2022/11/02 02:03:09;;;;;;;;;1.00;0.33;;;;;14.75;100.00;101741.84;5078878;27;46658;-76
2022/11/02 02:05:39;;;;;;;;;2.00;0.00;;;;;14.69;100.00;101761.28;5078615;27;45360;-75
2022/11/02 02:08:07;;;;;;;;;5.00;0.00;;;;;14.71;100.00;101750.69;5078678;27;45233;-75
2022/11/02 02:10:33;;;;;;;;;3.00;1.67;;;;;14.66;100.00;101748.88;5078915;27;45591;-75
2022/11/02 02:12:58;;;;;;;;;2.00;0.00;;;;;14.65;100.00;101760.41;5074168;27;46973;-75
2022/11/02 02:15:27;;;;;;;;;1.33;0.00;;;;;14.65;100.00;101763.06;5095905;27;62916;-74
2022/11/02 02:17:59;;;;;;;;;2.33;0.00;;;;;14.61;100.00;101760.34;5078539;27;45373;-74
2022/11/02 02:20:31;;;;;;;;;4.33;1.00;;;;;14.63;100.00;101766.56;5078452;27;45253;-75
2022/11/02 02:23:20;;;;;;;;;1.00;0.00;;;;;14.64;100.00;101763.91;5096607;27;46564;-74
2022/11/02 02:26:06;;;;;;;;;0.67;0.00;;;;;14.62;100.00;101776.31;5099530;27;45381;-74
2022/11/02 02:28:52;;;;;;;;;0.00;0.00;;;;;14.60;100.00;101775.41;5081965;27;45327;-74
2022/11/02 02:31:25;;;;;;;;;0.00;0.00;;;;;14.57;100.00;101766.50;5075980;27;45519;-74
2022/11/02 02:33:54;;;;;;;;;1.00;1.00;;;;;14.57;100.00;101772.72;5081538;27;45327;-75
2022/11/02 02:36:28;;;;;;;;;0.00;0.00;;;;;14.55;100.00;101769.16;5081942;27;45293;-75
2022/11/02 02:39:09;;;;;;;;;0.00;0.00;;;;;14.56;100.00;101772.72;5099986;27;45378;-75
2022/11/02 02:41:52;;;;;;;;;1.33;0.00;;;;;14.50;100.00;101762.91;5082195;27;45544;-76
2022/11/02 02:44:21;;;;;;;;;1.67;0.00;;;;;14.50;100.00;101776.19;5081580;27;45633;-76
2022/11/02 02:46:53;;;;;;;;;2.00;0.33;;;;;14.46;100.00;101773.47;5078542;28;45509;-75
2022/11/02 02:49:25;;;;;;;;;2.00;0.33;;;;;14.43;100.00;101774.28;5081237;27;45343;-75
2022/11/02 02:51:50;;;;;;;;;2.00;1.00;;;;;14.41;100.00;101776.06;5081831;27;45804;-76
2022/11/02 02:54:22;;;;;;;;;0.33;0.00;;;;;14.40;100.00;101776.94;5080664;27;60545;-75
2022/11/02 02:56:51;;;;;;;;;3.67;1.00;;;;;14.35;100.00;101779.53;5081428;27;45347;-76
2022/11/02 02:59:30;;;;;;;;;1.00;0.00;;;;;14.34;100.00;101780.44;5081500;27;45528;-75
2022/11/02 03:01:57;;;;;;;;;0.00;0.00;;;;;14.29;100.00;101781.25;5077045;27;45576;-76
2022/11/02 03:04:22;;;;;;;;;2.33;1.00;;;;;14.29;100.00;101781.25;5099588;27;45894;-76
2022/11/02 03:06:51;;;;;;;;;2.00;0.67;;;;;14.29;100.00;101798.06;5098879;27;65294;-75
2022/11/02 03:09:35;;;;;;;;;0.67;0.67;;;;;14.28;100.00;101795.41;5081132;27;45487;-75
2022/11/02 03:12:28;;;;;;;;;2.33;1.00;;;;;14.26;100.00;101789.19;5080051;27;45538;-75
2022/11/02 03:15:06;;;;;;;;;2.00;1.00;;;;;14.22;100.00;101790.00;5095419;27;45455;-75
2022/11/02 03:18:02;;;;;;;;;1.33;0.00;;;;;14.20;100.00;101795.31;5099401;27;45346;-74
2022/11/02 03:20:59;;;;;;;;;1.00;1.00;;;;;14.20;100.00;101805.94;5098041;27;45368;-77
2022/11/02 03:23:32;;;;;;;;;0.67;0.00;;;;;14.19;100.00;101803.28;5060049;27;46332;-77
2022/11/02 03:26:11;;;;;;;;;2.00;0.00;;;;;14.18;100.00;101807.69;5081272;27;46612;-75
2022/11/02 03:28:55;;;;;;;;;2.00;0.00;;;;;14.16;100.00;101812.97;5080680;27;45381;-77
2022/11/02 03:31:39;;;;;;;;;3.00;0.00;;;;;14.18;100.00;101807.69;5099446;27;45354;-77
2022/11/02 03:34:26;;;;;;;;;4.00;1.33;;;;;14.19;100.00;101811.25;5099526;27;45236;-76
2022/11/02 03:36:59;;;;;;;;;3.00;0.33;;;;;14.15;100.00;101805.88;5097918;27;45709;-77
2022/11/02 03:39:31;;;;;;;;;3.00;0.00;;;;;14.18;100.00;101815.66;5081524;27;45359;-77
2022/11/02 03:41:59;;;;;;;;;3.00;0.67;;;;;14.17;100.00;101816.53;5080789;27;45292;-76
2022/11/02 03:44:27;;;;;;;;;3.67;0.67;;;;;14.18;100.00;101817.44;5097317;27;58312;-77
2022/11/02 03:46:58;;;;;;;;;1.33;1.00;;;;;14.16;100.00;101830.66;5098541;27;58660;-76
2022/11/02 03:49:24;;;;;;;;;5.33;0.33;;;;;14.12;100.00;101826.22;5080454;27;45424;-77
2022/11/02 03:51:50;;;;;;;;;0.67;0.00;;;;;14.11;100.00;101840.34;5080445;27;52322;-77
2022/11/02 03:54:24;;;;;;;;;4.00;0.67;;;;;14.10;100.00;101846.53;5098081;27;56937;-77
2022/11/02 03:56:52;;;;;;;;;0.00;0.00;;;;;14.08;100.00;101846.53;5098760;27;46595;-77
2022/11/02 03:59:17;;;;;;;;;1.67;0.00;;;;;14.02;100.00;101846.44;5080642;27;45390;-76
2022/11/02 04:01:47;;;;;;;;;1.00;1.00;;;;;14.00;100.00;101853.47;5079844;27;58615;-77
2022/11/02 04:04:12;;;;;;;;;1.00;1.00;;;;;13.99;100.00;101869.41;5066062;27;45695;-76
2022/11/02 04:06:40;;;;;;;;;3.00;0.00;;;;;13.99;100.00;101866.75;5062975;27;53889;-77
2022/11/02 04:09:06;;;;;;;;;2.67;0.00;;;;;13.98;100.00;101873.81;5080404;27;45285;-77
2022/11/02 04:19:43;;;;;;;;;7.67;0.00;;;;;13.94;100.00;101882.63;5082720;27;45441;-76
2022/11/02 04:27:36;;;;;;;;;1.67;0.00;;;;;13.94;100.00;101890.56;5082876;27;45761;-76
2022/11/02 04:30:02;;;;;;;;;3.00;0.00;;;;;13.92;100.00;101899.41;5079620;27;45292;-77
2022/11/02 04:35:12;;;;;;;;;4.33;1.33;;;;;13.93;100.00;101914.47;5093654;27;45462;-77
2022/11/02 04:40:22;;;;;;;;;1.33;0.33;;;;;13.94;100.00;101918.91;5097058;27;45198;-76
2022/11/02 04:42:47;;;;;;;;;2.67;1.00;;;;;13.93;100.00;101925.97;5098115;27;45470;-76
2022/11/02 04:45:13;;;;;;;;;2.67;0.00;;;;;13.92;100.00;101916.22;5096476;27;53718;-76
2022/11/02 04:47:38;;;;;;;;;3.33;1.00;;;;;13.91;100.00;101921.53;5097198;27;45865;-77
2022/11/02 04:50:04;;;;;;;;;8.00;0.33;;;;;13.92;100.00;101920.66;5097386;27;63203;-78
2022/11/02 04:52:29;;;;;;;;;3.33;0.00;;;;;13.93;100.00;101935.72;5079351;27;45481;-77
2022/11/02 04:54:54;;;;;;;;;0.33;0.00;;;;;13.92;100.00;101929.50;5079470;27;57316;-77
2022/11/02 04:57:20;;;;;;;;;1.00;0.00;;;;;13.91;100.00;101935.69;5097567;27;45521;-77
2022/11/02 04:59:45;;;;;;;;;3.33;0.00;;;;;13.91;100.00;101942.78;5097712;27;50172;-76
2022/11/02 05:02:10;;;;;;;;;3.33;0.33;;;;;13.90;100.00;101944.50;5097205;27;54519;-76
2022/11/02 05:04:35;;;;;;;;;0.67;0.67;;;;;13.90;100.00;101947.16;5097254;27;51390;-76
2022/11/02 05:07:05;;;;;;;;;2.00;0.67;;;;;13.89;100.00;101943.59;5078529;27;67932;-77
2022/11/02 05:09:30;;;;;;;;;1.00;1.00;;;;;13.88;100.00;101951.56;5097471;27;45378;-76
2022/11/02 05:11:55;;;;;;;;;2.33;1.00;;;;;13.87;100.00;101949.78;5095851;27;48764;-77
2022/11/02 05:14:21;;;;;;;;;3.33;1.00;;;;;13.85;100.00;101940.91;5075171;27;56891;-76
2022/11/02 05:16:46;;;;;;;;;3.33;0.00;;;;;13.85;100.00;101952.41;5096196;27;68287;-76
2022/11/02 05:19:11;;;;;;;;;1.67;0.00;;;;;13.84;100.00;101950.59;5097525;27;53007;-77
2022/11/02 05:21:37;;;;;;;;;0.67;0.67;;;;;13.83;100.00;101958.56;5078418;27;60140;-76
2022/11/02 05:24:02;;;;;;;;;3.00;1.00;;;;;13.82;100.00;101959.44;5078748;27;55705;-77
2022/11/02 05:26:27;;;;;;;;;3.33;2.00;;;;;13.79;100.00;101959.38;5078832;27;46432;-76
2022/11/02 05:28:53;;;;;;;;;0.67;0.00;;;;;13.79;100.00;101967.34;5096909;27;57909;-76
2022/11/02 05:31:18;;;;;;;;;2.00;0.00;;;;;13.80;100.00;101975.34;5073178;27;57731;-77
2022/11/02 05:33:43;;;;;;;;;2.00;1.00;;;;;13.81;100.00;101978.91;5078543;27;57896;-76
2022/11/02 05:36:09;;;;;;;;;3.67;1.00;;;;;13.80;100.00;101978.00;5097242;27;46218;-77
2022/11/02 05:38:34;;;;;;;;;2.67;0.67;;;;;13.82;100.00;101981.56;5097169;27;45374;-76
2022/11/02 05:40:59;;;;;;;;;5.00;0.00;;;;;13.81;100.00;101984.19;5096760;27;59013;-76
2022/11/02 05:43:25;;;;;;;;;4.00;0.67;;;;;13.79;100.00;101986.81;5095384;27;59815;-77
2022/11/02 05:45:59;;;;;;;;;0.00;0.00;;;;;13.78;100.00;101986.78;5078610;27;46350;-76
2022/11/02 05:48:26;;;;;;;;;3.33;0.33;;;;;13.77;100.00;101991.22;5075344;28;45970;-76
2022/11/02 05:50:55;;;;;;;;;3.00;1.00;;;;;13.75;100.00;101984.09;5073657;28;45339;-77
2022/11/02 05:53:21;;;;;;;;;1.33;0.00;;;;;13.74;100.00;101993.84;5070730;27;45359;-77
2022/11/02 05:55:46;;;;;;;;;1.33;0.00;;;;;13.77;100.00;101985.91;5061560;27;47885;-77
2022/11/02 05:58:11;;;;;;;;;2.00;0.00;;;;;13.77;100.00;101990.31;5091538;27;66296;-77
2022/11/02 06:00:37;;;;;;;;;0.00;0.00;;;;;13.77;100.00;101985.00;5099432;27;45395;-76
2022/11/02 06:03:02;;;;;;;;;0.67;0.67;;;;;13.72;100.00;101974.31;5082599;27;45292;-76
2022/11/02 06:05:28;;;;;;;;;4.67;0.67;;;;;13.73;100.00;101986.72;5081694;27;60022;-76
2022/11/02 06:08:00;;;;;;;;;1.33;1.33;;;;;13.69;100.00;101978.66;5100592;27;45366;-77
2022/11/02 06:10:26;;;;;;;;;2.33;1.00;;;;;13.71;100.00;101983.16;5082203;27;45280;-77
2022/11/02 06:12:56;;;;;;;;;1.00;1.00;;;;;13.72;100.00;101981.38;5097260;27;45550;-77
2022/11/02 06:15:21;;;;;;;;;3.00;2.00;;;;;13.71;100.00;101980.50;5081791;27;47218;-76
2022/11/02 06:17:47;;;;;;;;;2.00;0.00;;;;;13.69;100.00;101984.91;5077094;28;67646;-76
2022/11/02 06:20:13;;;;;;;;;2.00;0.00;;;;;13.70;100.00;101994.66;5098016;27;59561;-76
2022/11/02 06:22:40;;;;;;;;;0.00;0.00;;;;;13.70;100.00;101999.94;5101300;27;45525;-77
2022/11/02 06:25:05;;;;;;;;;2.00;1.00;;;;;13.67;100.00;101996.34;5084030;27;46156;-77
2022/11/02 06:27:31;;;;;;;;;2.00;0.00;;;;;13.69;100.00;102013.19;5100955;27;45496;-76
2022/11/02 06:29:56;;;;;;;;;5.67;1.00;;;;;13.66;100.00;102016.69;5081181;27;62235;-76
2022/11/02 06:32:22;;;;;;;;;2.00;2.00;;;;;13.67;100.00;102013.16;5100054;27;45264;-76
2022/11/02 06:34:47;;;;;;;;;0.00;0.00;;;;;13.67;100.00;102017.56;5081555;27;47549;-76
2022/11/02 06:37:12;;;;;;;;;1.67;1.00;;;;;13.67;100.00;102023.78;5099462;27;64050;-76
2022/11/02 06:39:38;;;;;;;;;2.00;0.33;;;;;13.70;100.00;102018.53;5064914;27;45485;-76
2022/11/02 06:42:03;;;;;;;;;5.00;1.00;;;;;13.69;100.00;102010.53;5099452;27;55746;-76
2022/11/02 06:44:28;;;;;;;;;1.00;1.00;;;;;13.70;100.00;102017.66;5100120;27;46404;-75
2022/11/02 06:46:54;;;;;;;;;2.33;1.00;;;;;13.69;100.00;102027.38;5099153;27;68251;-76
2022/11/02 06:49:19;;;;;;;;;1.00;1.00;;;;;13.67;100.00;102026.44;5100081;27;45473;-76
2022/11/02 06:51:44;;;;;;;;;1.00;1.00;;;;;13.67;100.00;102028.19;5100147;27;45507;-77
2022/11/02 06:54:10;;;;;;;;;3.67;1.67;;;;;13.66;100.00;102037.03;5081256;27;47441;-76
2022/11/02 06:56:35;;;;;;;;;3.33;1.00;;;;;13.64;100.00;102037.00;5098865;27;66630;-76
2022/11/02 06:59:01;;;;;;;;;4.00;1.00;;;;;13.65;100.00;102049.41;5081509;27;45370;-76
2022/11/02 07:01:26;;;;;;;;;2.00;1.00;;;;;13.65;100.00;102051.16;5099326;27;54588;-75
2022/11/02 07:03:51;;;;;;;;;4.00;1.00;;;;;13.65;100.00;102049.41;5099009;27;56091;-77
2022/11/02 07:06:17;;;;;;;;;1.00;1.00;;;;;13.64;100.00;102050.28;5099422;27;45260;-77
2022/11/02 07:08:42;;;;;;;;;4.00;1.67;;;;;13.67;100.00;102054.72;5098764;27;58930;-75
2022/11/02 07:11:11;;;;;;;;;3.00;1.00;;;;;13.67;100.00;102046.78;5080436;27;45510;-76
2022/11/02 07:13:37;;;;;;;;;4.67;1.33;;;;;13.65;100.00;102044.09;5094549;27;46624;-76
2022/11/02 07:16:02;;;;;;;;;1.00;0.00;;;;;13.68;100.00;102049.44;5077519;27;68492;-76
2022/11/02 07:18:27;;;;;;;;;0.67;0.67;;;;;13.68;100.00;102048.56;5080889;27;45299;-76
2022/11/02 07:20:53;;;;;;;;;0.00;0.00;;;;;13.69;100.00;102050.34;5080588;27;57678;-77
2022/11/02 07:23:22;;;;;;;;;3.00;0.00;;;;;13.68;100.00;102049.44;5099071;27;47301;-76
2022/11/02 07:25:47;;;;;;;;;4.00;1.67;;;;;13.65;100.00;102049.41;5099483;27;45316;-76
2022/11/02 07:28:13;;;;;;;;;1.67;1.00;;;;;13.68;100.00;102053.88;5098743;27;58475;-76
2022/11/02 07:30:38;;;;;;;;;5.33;1.00;;;;;13.68;100.00;102051.22;5099220;27;45703;-75
2022/11/02 07:33:03;;;;;;;;;3.33;1.00;;;;;13.67;100.00;102052.97;5098154;27;68883;-75
2022/11/02 07:35:29;;;;;;;;;2.00;1.00;;;;;13.68;100.00;102065.38;5098367;27;67852;-76
2022/11/02 07:38:01;;;;;;;;;5.00;2.00;;;;;13.68;100.00;102056.50;5081057;27;45483;-76
2022/11/02 07:40:28;;;;;;;;;1.00;1.00;;;;;13.69;100.00;102064.53;5081042;27;45380;-76
2022/11/02 07:42:54;;;;;;;;;4.00;2.00;;;;;13.69;100.00;102063.59;5098813;27;45960;-76
2022/11/02 07:45:21;;;;;;;;;3.67;1.00;;;;;13.72;100.00;102058.38;5077939;27;45314;-76
2022/11/02 07:47:47;;;;;;;;;2.33;1.00;;;;;13.75;100.00;102064.63;5077453;28;45440;-76
2022/11/02 07:50:13;;;;;;;;;2.33;1.00;;;;;13.77;100.00;102065.53;5090597;27;45593;-76
2022/11/02 07:52:50;;;;;;;;;4.00;0.67;;;;;13.80;100.00;102068.25;5076887;28;47106;-76
2022/11/02 07:55:20;;;;;;;;;3.67;1.00;;;;;13.80;100.00;102072.69;5092645;27;45429;-76
2022/11/02 07:58:15;;;;;;;;;3.33;1.00;;;;;13.83;100.00;102070.94;5098825;27;45472;-76
2022/11/02 08:00:41;;;;;;;;;5.67;1.33;;;;;13.85;100.00;102065.69;5096496;27;45668;-75
2022/11/02 08:03:07;;;;;;;;;2.00;1.00;;;;;13.87;100.00;102062.19;5080498;27;45963;-76
2022/11/02 08:05:35;;;;;;;;;6.00;2.00;;;;;13.94;100.00;102067.59;5072100;27;45503;-77
2022/11/02 08:08:02;;;;;;;;;3.33;1.00;;;;;13.93;100.00;102064.03;5097566;27;45415;-76
2022/11/02 08:10:30;;;;;;;;;5.33;1.00;;;;;13.95;100.00;102067.59;5080385;27;45541;-77
2022/11/02 08:12:55;;;;;;;;;4.33;1.33;;;;;13.98;100.00;102073.00;5092272;27;47506;-75
2022/11/02 08:15:20;;;;;;;;;3.33;1.33;;;;;13.99;100.00;102072.13;5076206;28;45374;-75
2022/11/02 08:17:46;;;;;;;;;1.67;1.67;;;;;14.04;100.00;102072.19;5093164;27;57656;-76
2022/11/02 08:20:11;;;;;;;;;3.33;3.00;;;;;14.06;100.00;102071.38;5098181;27;45450;-77
2022/11/02 08:22:37;;;;;;;;;2.67;1.00;;;;;14.09;100.00;102068.75;5078950;27;54417;-76
2022/11/02 08:25:03;;;;;;;;;2.67;0.00;;;;;14.12;100.00;102076.78;5098390;27;45653;-76
2022/11/02 08:27:29;;;;;;;;;5.33;0.67;;;;;14.12;100.00;102060.84;5080289;27;45505;-75
2022/11/02 08:29:54;;;;;;;;;4.00;1.00;;;;;14.19;100.00;102067.13;5062611;27;62812;-76
2022/11/02 08:32:19;;;;;;;;;4.67;1.00;;;;;14.23;100.00;102076.06;5097311;27;64591;-77
2022/11/02 08:34:45;;;;;;;;;3.00;1.00;;;;;14.26;100.00;102074.31;5079934;27;45489;-76
2022/11/02 08:37:10;;;;;;;;;4.00;2.00;;;;;14.26;100.00;102074.31;5097600;27;58635;-76
2022/11/02 08:39:35;;;;;;;;;1.00;1.00;;;;;14.31;100.00;102082.38;5079243;27;62284;-76
2022/11/02 08:42:01;;;;;;;;;4.00;1.00;;;;;14.33;100.00;102078.88;5095857;27;70022;-76
2022/11/02 08:44:26;;;;;;;;;0.67;0.67;;;;;14.35;100.00;102079.78;5097109;27;65455;-76
2022/11/02 08:46:51;;;;;;;;;3.00;2.00;;;;;14.39;100.00;102078.09;5069079;27;60496;-75
2022/11/02 08:49:17;;;;;;;;;3.67;1.33;;;;;14.43;100.00;102079.88;5097630;27;47852;-75
2022/11/02 08:51:44;;;;;;;;;8.33;2.00;;;;;14.43;100.00;102077.22;5097892;27;45607;-76
2022/11/02 08:54:10;;;;;;;;;1.33;1.33;;;;;14.47;100.00;102087.06;5079500;27;45482;-76
2022/11/02 08:56:35;;;;;;;;;2.00;1.33;;;;;14.51;100.00;102086.25;5097799;27;45322;-77
2022/11/02 08:59:00;;;;;;;;;2.00;2.00;;;;;14.54;100.00;102081.00;5096904;27;61738;-76
2022/11/02 09:01:26;;;;;;;;;1.00;1.00;;;;;14.59;100.00;102083.69;5097673;27;45691;-77
2022/11/02 09:03:51;;;;;;;;;2.00;0.00;;;;;14.58;100.00;102077.50;5079344;27;47997;-77
2022/11/02 09:06:16;;;;;;;;;1.00;1.00;;;;;14.59;100.00;102068.66;5079438;27;45434;-76
2022/11/02 09:08:42;;;;;;;;;1.00;1.00;;;;;14.64;100.00;102080.22;5077996;27;61289;-76
2022/11/02 09:11:07;;;;;;;;;1.67;0.33;;;;;14.64;100.00;102072.25;5129606;22;54982;-76
2022/11/02 09:13:32;;;;;;;;;3.33;1.00;;;;;14.72;100.00;102071.50;5116268;27;58255;-75
2022/11/02 09:15:58;;;;;;;;;3.00;1.00;;;;;14.73;100.00;102070.63;5114676;27;45373;-76
2022/11/02 09:18:24;;;;;;;;;3.33;1.67;;;;;14.73;100.00;102065.31;5102459;27;45398;-75
2022/11/02 09:20:50;;;;;;;;;3.33;1.00;;;;;14.80;100.00;102072.47;5099337;27;45996;-75
2022/11/02 09:23:16;;;;;;;;;2.00;0.00;;;;;14.82;100.00;102070.75;5095103;27;45454;-76
2022/11/02 09:25:41;;;;;;;;;4.33;2.00;;;;;14.81;100.00;102059.22;5096424;27;45377;-75
2022/11/02 09:28:07;;;;;;;;;1.00;1.00;;;;;14.86;100.00;102061.91;5091348;27;56845;-76
2022/11/02 09:30:33;;;;;;;;;3.00;2.00;;;;;14.86;100.00;102062.84;5111249;27;45713;-76
2022/11/02 09:33:00;;;;;;;;;6.00;2.00;;;;;14.91;100.00;102057.56;5107671;27;45515;-75
2022/11/02 09:35:28;;;;;;;;;4.33;2.33;;;;;14.92;100.00;102057.59;5106292;27;45371;-75
2022/11/02 09:37:54;;;;;;;;;6.67;1.00;;;;;14.93;100.00;102053.16;5086706;27;45623;-75
2022/11/02 09:40:22;;;;;;;;;5.33;2.33;;;;;15.00;100.00;102056.78;5112970;27;46898;-76
2022/11/02 09:43:05;;;;;;;;;4.00;2.00;;;;;15.05;100.00;102060.41;5102132;27;45263;-76
2022/11/02 09:45:35;;;;;;;;;1.33;1.33;;;;;15.08;100.00;102057.78;5101417;27;47051;-76
2022/11/02 09:48:05;;;;;;;;;4.00;1.00;;;;;15.11;100.00;102050.72;5098731;27;45326;-76
2022/11/02 09:50:44;;;;;;;;;1.33;1.33;;;;;15.15;100.00;102055.22;5098274;27;46507;-75
2022/11/02 09:53:15;;;;;;;;;3.33;1.33;;;;;15.19;100.00;102049.06;5098210;27;45542;-76
2022/11/02 09:55:47;;;;;;;;;3.67;3.00;;;;;15.24;100.00;102051.78;5094354;27;45504;-74
2022/11/02 09:58:17;;;;;;;;;8.33;3.00;;;;;15.29;100.00;102055.38;5095971;27;45496;-76
2022/11/02 10:00:47;;;;;;;;;5.00;2.00;;;;;15.31;100.00;102048.28;5089618;27;46727;-76
2022/11/02 10:03:37;;;;;;;;;1.67;1.00;;;;;15.33;100.00;102054.50;5093725;27;45441;-75
2022/11/02 10:06:12;;;;;;;;;4.67;1.00;;;;;15.37;100.00;102056.34;5110433;27;45349;-75
2022/11/02 10:09:01;;;;;;;;;6.00;1.67;;;;;15.40;100.00;102047.50;5086724;27;45560;-75
2022/11/02 10:11:34;;;;;;;;;1.00;1.00;;;;;15.42;100.00;102051.06;5106519;27;46764;-75
2022/11/02 10:14:07;;;;;;;;;2.67;1.00;;;;;15.43;100.00;102040.44;5110227;27;45231;-75
2022/11/02 10:16:39;;;;;;;;;4.00;2.00;;;;;15.49;100.00;102050.25;5101556;27;45324;-75
2022/11/02 10:19:12;;;;;;;;;4.33;2.00;;;;;15.45;100.00;102035.16;5087254;27;45477;-75
2022/11/02 10:21:38;;;;;;;;;3.33;2.00;;;;;15.54;100.00;102047.63;5114092;27;46539;-75
2022/11/02 10:24:38;;;;;;;;;2.00;1.00;;;;;15.59;100.00;102060.13;5096831;27;45667;-75
2022/11/02 10:27:05;;;;;;;;;1.00;1.00;;;;;15.61;100.00;102045.06;5093987;27;45466;-75
2022/11/02 10:30:03;;;;;;;;;1.00;1.00;;;;;15.67;100.00;102050.47;5110293;27;45522;-76
2022/11/02 10:32:30;;;;;;;;;3.67;1.00;;;;;15.69;100.00;102053.16;5092612;27;45721;-75
2022/11/02 10:34:56;;;;;;;;;0.33;0.33;;;;;15.70;100.00;102045.16;5085723;27;45431;-75
2022/11/02 10:37:50;;;;;;;;;1.00;1.00;;;;;15.77;100.00;102053.25;5098119;27;45536;-75
2022/11/02 10:40:30;;;;;;;;;3.00;0.00;;;;;15.79;100.00;102060.34;5107539;27;45374;-76
2022/11/02 10:43:27;;;;;;;;;3.67;1.67;;;;;15.85;100.00;102064.84;5099739;27;48594;-75
2022/11/02 10:46:34;;;;;;;;;2.67;1.00;;;;;15.87;100.00;102058.66;5084259;27;45449;-77
2022/11/02 10:49:09;;;;;;;;;2.00;1.00;;;;;15.87;100.00;102050.66;5058029;27;45254;-77
2022/11/02 10:51:35;;;;;;;;;1.00;1.00;;;;;15.88;100.00;102039.13;5091956;27;45386;-76
2022/11/02 10:54:00;;;;;;;;;4.67;1.67;;;;;15.93;100.00;102047.16;5116789;27;67904;-76
2022/11/02 10:56:30;;;;;;;;;1.00;1.00;;;;;15.94;100.00;102043.63;5118364;27;46051;-75
2022/11/02 10:59:01;;;;;;;;;1.33;1.33;;;;;15.95;100.00;102040.06;5077618;27;45326;-76
2022/11/02 11:01:28;;;;;;;;;4.67;1.67;;;;;15.96;100.00;102041.84;5115992;27;45308;-75
2022/11/02 11:03:58;;;;;;;;;5.00;2.00;;;;;16.01;100.00;102040.09;5101771;27;46510;-76
2022/11/02 11:06:26;;;;;;;;;1.67;1.00;;;;;16.02;100.00;102030.34;5086735;27;45410;-75
2022/11/02 11:08:58;;;;;;;;;4.00;1.00;;;;;16.07;100.00;102032.16;5087863;27;45396;-75
2022/11/02 11:11:33;;;;;;;;;1.00;1.00;;;;;16.05;100.00;102023.28;5100142;27;45350;-75
2022/11/02 11:14:26;;;;;;;;;3.67;1.00;;;;;16.15;100.00;102032.25;5101940;27;46682;-75
2022/11/02 11:17:00;;;;;;;;;7.00;2.00;;;;;16.19;100.00;102029.59;5092509;27;45448;-76
2022/11/02 11:19:32;;;;;;;;;6.00;2.00;;;;;16.24;100.00;102025.19;5118935;27;45495;-75
2022/11/02 11:21:58;;;;;;;;;3.00;2.00;;;;;16.28;100.00;102017.22;5116553;27;45556;-76
2022/11/02 11:24:28;;;;;;;;;4.00;2.00;;;;;16.32;100.00;102027.00;5098549;27;45661;-75
2022/11/02 11:27:19;;;;;;;;;1.00;1.00;;;;;16.36;100.00;102019.06;5097034;27;45486;-75
2022/11/02 11:29:50;;;;;;;;;2.00;2.00;;;;;16.41;100.00;102017.31;5110998;27;45494;-75
2022/11/02 11:32:26;;;;;;;;;2.00;2.00;;;;;16.45;100.00;102018.19;5112338;27;45532;-76
2022/11/02 11:34:58;;;;;;;;;1.33;1.33;;;;;16.45;100.00;102016.41;5094338;27;47840;-75
2022/11/02 11:37:25;;;;;;;;;0.67;0.67;;;;;16.49;100.00;102010.22;5109589;27;45413;-76
2022/11/02 11:39:53;;;;;;;;;1.00;1.00;;;;;16.49;100.00;102004.91;5092924;27;45400;-76
2022/11/02 11:42:21;;;;;;;;;2.33;1.33;;;;;16.44;100.00;102001.31;5107626;27;45414;-75
2022/11/02 11:45:05;;;;;;;;;1.67;0.33;;;;;16.49;100.00;102001.34;5101006;27;46661;-75